sensor_id;sensor_type;location;lat;lon;timestamp;temperature;humidity
48328;DHT22;34136;51.022;7.082;2022-08-01T00:00:13;22.30;29.70
48328;DHT22;34136;51.022;7.082;2022-08-01T00:02:59;22.30;28.70
48328;DHT22;34136;51.022;7.082;2022-08-01T00:05:47;22.20;31.40
48328;DHT22;34136;51.022;7.082;2022-08-01T00:08:33;22.10;30.80
48328;DHT22;34136;51.022;7.082;2022-08-01T00:11:20;22.10;30.40
48328;DHT22;34136;51.022;7.082;2022-08-01T00:14:06;22.10;30.30
48328;DHT22;34136;51.022;7.082;2022-08-01T00:16:53;22.10;30.90
48328;DHT22;34136;51.022;7.082;2022-08-01T00:19:39;22.00;30.50
48328;DHT22;34136;51.022;7.082;2022-08-01T00:22:26;21.80;28.30
48328;DHT22;34136;51.022;7.082;2022-08-01T00:25:12;21.60;27.70
48328;DHT22;34136;51.022;7.082;2022-08-01T00:27:58;21.60;28.60
48328;DHT22;34136;51.022;7.082;2022-08-01T00:30:44;21.40;28.70
48328;DHT22;34136;51.022;7.082;2022-08-01T00:33:31;21.50;29.60
48328;DHT22;34136;51.022;7.082;2022-08-01T00:36:17;21.50;29.70
48328;DHT22;34136;51.022;7.082;2022-08-01T00:39:03;21.40;29.00
48328;DHT22;34136;51.022;7.082;2022-08-01T00:41:49;21.50;28.20
48328;DHT22;34136;51.022;7.082;2022-08-01T00:44:36;21.60;27.40
48328;DHT22;34136;51.022;7.082;2022-08-01T00:47:23;21.50;27.90
48328;DHT22;34136;51.022;7.082;2022-08-01T00:50:10;21.50;27.80
48328;DHT22;34136;51.022;7.082;2022-08-01T00:52:57;21.40;28.90
48328;DHT22;34136;51.022;7.082;2022-08-01T00:55:44;21.40;28.30
48328;DHT22;34136;51.022;7.082;2022-08-01T00:58:30;21.60;28.10
48328;DHT22;34136;51.022;7.082;2022-08-01T01:01:17;21.60;27.30
48328;DHT22;34136;51.022;7.082;2022-08-01T01:04:03;21.50;28.20
48328;DHT22;34136;51.022;7.082;2022-08-01T01:10:09;21.30;26.50
48328;DHT22;34136;51.022;7.082;2022-08-01T01:13:04;21.20;27.60
48328;DHT22;34136;51.022;7.082;2022-08-01T01:16:00;21.10;27.90
48328;DHT22;34136;51.022;7.082;2022-08-01T01:18:54;21.10;27.30
48328;DHT22;34136;51.022;7.082;2022-08-01T01:24:40;21.00;27.00
48328;DHT22;34136;51.022;7.082;2022-08-01T01:30:39;20.80;28.00
48328;DHT22;34136;51.022;7.082;2022-08-01T01:33:28;20.70;28.20
48328;DHT22;34136;51.022;7.082;2022-08-01T01:36:16;20.70;27.90
48328;DHT22;34136;51.022;7.082;2022-08-01T01:39:04;20.70;28.30
48328;DHT22;34136;51.022;7.082;2022-08-01T01:41:50;20.70;27.30
48328;DHT22;34136;51.022;7.082;2022-08-01T01:44:38;20.80;27.30
48328;DHT22;34136;51.022;7.082;2022-08-01T01:47:26;20.80;26.90
48328;DHT22;34136;51.022;7.082;2022-08-01T01:50:13;20.80;25.90
48328;DHT22;34136;51.022;7.082;2022-08-01T01:53:03;20.70;26.90
48328;DHT22;34136;51.022;7.082;2022-08-01T01:55:53;20.70;27.00
48328;DHT22;34136;51.022;7.082;2022-08-01T01:58:42;20.80;26.30
48328;DHT22;34136;51.022;7.082;2022-08-01T02:01:31;20.80;27.10
48328;DHT22;34136;51.022;7.082;2022-08-01T02:04:21;20.70;26.30
48328;DHT22;34136;51.022;7.082;2022-08-01T02:07:11;20.70;26.40
48328;DHT22;34136;51.022;7.082;2022-08-01T02:10:00;20.70;26.60
48328;DHT22;34136;51.022;7.082;2022-08-01T02:12:48;20.70;26.80
48328;DHT22;34136;51.022;7.082;2022-08-01T02:15:36;20.70;26.30
48328;DHT22;34136;51.022;7.082;2022-08-01T02:18:22;20.70;27.10
48328;DHT22;34136;51.022;7.082;2022-08-01T02:21:13;20.70;26.10
48328;DHT22;34136;51.022;7.082;2022-08-01T02:24:07;20.70;26.40
48328;DHT22;34136;51.022;7.082;2022-08-01T02:26:57;20.70;26.50
48328;DHT22;34136;51.022;7.082;2022-08-01T02:29:58;20.70;25.30
48328;DHT22;34136;51.022;7.082;2022-08-01T02:32:47;20.80;26.30
48328;DHT22;34136;51.022;7.082;2022-08-01T02:35:37;20.80;25.40
48328;DHT22;34136;51.022;7.082;2022-08-01T02:38:27;20.80;24.50
48328;DHT22;34136;51.022;7.082;2022-08-01T02:41:19;20.70;25.10
48328;DHT22;34136;51.022;7.082;2022-08-01T02:44:08;20.70;24.50
48328;DHT22;34136;51.022;7.082;2022-08-01T02:47:02;20.80;24.80
48328;DHT22;34136;51.022;7.082;2022-08-01T02:49:50;20.80;24.40
48328;DHT22;34136;51.022;7.082;2022-08-01T02:52:37;20.70;26.00
48328;DHT22;34136;51.022;7.082;2022-08-01T02:55:26;20.70;25.30
48328;DHT22;34136;51.022;7.082;2022-08-01T02:58:15;20.80;24.10
48328;DHT22;34136;51.022;7.082;2022-08-01T03:01:04;20.80;24.30
48328;DHT22;34136;51.022;7.082;2022-08-01T03:03:51;20.80;23.70
48328;DHT22;34136;51.022;7.082;2022-08-01T03:06:38;20.80;24.20
48328;DHT22;34136;51.022;7.082;2022-08-01T03:09:26;20.80;23.40
48328;DHT22;34136;51.022;7.082;2022-08-01T03:12:19;20.80;22.90
48328;DHT22;34136;51.022;7.082;2022-08-01T03:15:09;20.80;22.30
48328;DHT22;34136;51.022;7.082;2022-08-01T03:17:57;20.80;22.60
48328;DHT22;34136;51.022;7.082;2022-08-01T03:20:45;20.80;22.90
48328;DHT22;34136;51.022;7.082;2022-08-01T03:23:32;20.80;23.80
48328;DHT22;34136;51.022;7.082;2022-08-01T03:26:19;20.80;22.60
48328;DHT22;34136;51.022;7.082;2022-08-01T03:29:10;20.80;22.90
48328;DHT22;34136;51.022;7.082;2022-08-01T03:32:00;20.80;24.00
48328;DHT22;34136;51.022;7.082;2022-08-01T03:34:46;20.80;23.00
48328;DHT22;34136;51.022;7.082;2022-08-01T03:37:38;20.80;22.90
48328;DHT22;34136;51.022;7.082;2022-08-01T03:40:39;20.70;23.40
48328;DHT22;34136;51.022;7.082;2022-08-01T03:43:35;20.70;23.50
48328;DHT22;34136;51.022;7.082;2022-08-01T03:46:32;20.60;24.10
48328;DHT22;34136;51.022;7.082;2022-08-01T03:49:26;20.70;24.30
48328;DHT22;34136;51.022;7.082;2022-08-01T03:52:15;20.70;24.10
48328;DHT22;34136;51.022;7.082;2022-08-01T03:55:04;20.60;24.50
48328;DHT22;34136;51.022;7.082;2022-08-01T03:57:51;20.70;24.20
48328;DHT22;34136;51.022;7.082;2022-08-01T04:00:38;20.60;23.80
48328;DHT22;34136;51.022;7.082;2022-08-01T04:03:25;20.60;24.70
48328;DHT22;34136;51.022;7.082;2022-08-01T04:06:12;20.60;23.80
48328;DHT22;34136;51.022;7.082;2022-08-01T04:08:59;20.50;26.20
48328;DHT22;34136;51.022;7.082;2022-08-01T04:11:45;20.50;25.50
48328;DHT22;34136;51.022;7.082;2022-08-01T04:14:32;20.50;26.90
48328;DHT22;34136;51.022;7.082;2022-08-01T04:17:19;20.60;26.60
48328;DHT22;34136;51.022;7.082;2022-08-01T04:20:06;20.70;27.30
48328;DHT22;34136;51.022;7.082;2022-08-01T04:22:52;20.70;26.50
48328;DHT22;34136;51.022;7.082;2022-08-01T04:25:39;20.80;26.50
48328;DHT22;34136;51.022;7.082;2022-08-01T04:28:27;20.70;25.60
48328;DHT22;34136;51.022;7.082;2022-08-01T04:31:16;20.70;27.40
48328;DHT22;34136;51.022;7.082;2022-08-01T04:34:04;20.70;26.00
48328;DHT22;34136;51.022;7.082;2022-08-01T04:36:54;20.70;26.40
48328;DHT22;34136;51.022;7.082;2022-08-01T04:39:41;20.80;26.30
48328;DHT22;34136;51.022;7.082;2022-08-01T04:42:28;20.90;26.40
48328;DHT22;34136;51.022;7.082;2022-08-01T04:45:15;20.90;25.80
48328;DHT22;34136;51.022;7.082;2022-08-01T04:48:05;21.00;25.80
48328;DHT22;34136;51.022;7.082;2022-08-01T04:50:51;21.00;26.00
48328;DHT22;34136;51.022;7.082;2022-08-01T04:53:38;20.90;25.50
48328;DHT22;34136;51.022;7.082;2022-08-01T04:56:24;20.80;25.00
48328;DHT22;34136;51.022;7.082;2022-08-01T04:59:10;20.80;25.00
48328;DHT22;34136;51.022;7.082;2022-08-01T05:01:56;20.70;27.50
48328;DHT22;34136;51.022;7.082;2022-08-01T05:04:43;20.70;26.30
48328;DHT22;34136;51.022;7.082;2022-08-01T05:07:30;20.80;26.60
48328;DHT22;34136;51.022;7.082;2022-08-01T05:10:16;20.80;26.10
48328;DHT22;34136;51.022;7.082;2022-08-01T05:13:02;20.80;26.40
48328;DHT22;34136;51.022;7.082;2022-08-01T05:15:48;20.80;25.60
48328;DHT22;34136;51.022;7.082;2022-08-01T05:18:35;20.80;26.60
48328;DHT22;34136;51.022;7.082;2022-08-01T05:21:21;20.90;26.70
48328;DHT22;34136;51.022;7.082;2022-08-01T05:24:07;20.90;26.80
48328;DHT22;34136;51.022;7.082;2022-08-01T05:26:57;21.00;25.40
48328;DHT22;34136;51.022;7.082;2022-08-01T05:29:44;21.00;25.50
48328;DHT22;34136;51.022;7.082;2022-08-01T05:32:30;21.10;25.20
48328;DHT22;34136;51.022;7.082;2022-08-01T05:35:16;21.10;25.80
48328;DHT22;34136;51.022;7.082;2022-08-01T05:38:02;21.10;25.60
48328;DHT22;34136;51.022;7.082;2022-08-01T05:40:49;21.20;25.40
48328;DHT22;34136;51.022;7.082;2022-08-01T05:43:35;21.10;24.20
48328;DHT22;34136;51.022;7.082;2022-08-01T05:46:21;21.20;24.40
48328;DHT22;34136;51.022;7.082;2022-08-01T05:49:07;21.10;24.20
48328;DHT22;34136;51.022;7.082;2022-08-01T05:51:54;21.10;24.00
48328;DHT22;34136;51.022;7.082;2022-08-01T05:54:40;21.00;23.50
48328;DHT22;34136;51.022;7.082;2022-08-01T05:57:26;21.00;23.90
48328;DHT22;34136;51.022;7.082;2022-08-01T06:00:13;21.00;23.40
48328;DHT22;34136;51.022;7.082;2022-08-01T06:02:59;21.10;24.70
48328;DHT22;34136;51.022;7.082;2022-08-01T06:05:45;21.10;22.40
48328;DHT22;34136;51.022;7.082;2022-08-01T06:08:32;21.10;21.70
48328;DHT22;34136;51.022;7.082;2022-08-01T06:11:18;21.10;23.50
48328;DHT22;34136;51.022;7.082;2022-08-01T06:14:04;21.20;21.80
48328;DHT22;34136;51.022;7.082;2022-08-01T06:16:50;21.20;21.70
48328;DHT22;34136;51.022;7.082;2022-08-01T06:19:37;21.30;23.40
48328;DHT22;34136;51.022;7.082;2022-08-01T06:22:23;21.40;21.70
48328;DHT22;34136;51.022;7.082;2022-08-01T06:25:09;21.40;21.10
48328;DHT22;34136;51.022;7.082;2022-08-01T06:27:56;21.40;20.00
48328;DHT22;34136;51.022;7.082;2022-08-01T06:30:44;21.40;19.90
48328;DHT22;34136;51.022;7.082;2022-08-01T06:33:31;21.40;20.60
48328;DHT22;34136;51.022;7.082;2022-08-01T06:36:17;21.60;20.70
48328;DHT22;34136;51.022;7.082;2022-08-01T06:39:04;21.70;17.90
48328;DHT22;34136;51.022;7.082;2022-08-01T06:41:50;21.70;18.70
48328;DHT22;34136;51.022;7.082;2022-08-01T06:44:36;21.70;17.90
48328;DHT22;34136;51.022;7.082;2022-08-01T06:47:22;21.70;17.90
48328;DHT22;34136;51.022;7.082;2022-08-01T06:50:09;21.80;18.50
48328;DHT22;34136;51.022;7.082;2022-08-01T06:52:56;21.90;16.70
48328;DHT22;34136;51.022;7.082;2022-08-01T06:55:42;22.00;16.40
48328;DHT22;34136;51.022;7.082;2022-08-01T06:58:28;22.20;15.20
48328;DHT22;34136;51.022;7.082;2022-08-01T07:01:14;22.40;15.60
48328;DHT22;34136;51.022;7.082;2022-08-01T07:04:01;22.60;13.60
48328;DHT22;34136;51.022;7.082;2022-08-01T07:06:47;22.70;12.30
48328;DHT22;34136;51.022;7.082;2022-08-01T07:09:33;22.70;10.10
48328;DHT22;34136;51.022;7.082;2022-08-01T07:12:19;22.50;12.40
48328;DHT22;34136;51.022;7.082;2022-08-01T07:15:06;22.40;11.50
48328;DHT22;34136;51.022;7.082;2022-08-01T07:17:52;22.40;12.10
48328;DHT22;34136;51.022;7.082;2022-08-01T07:20:39;22.50;11.20
48328;DHT22;34136;51.022;7.082;2022-08-01T07:23:25;22.50;12.20
48328;DHT22;34136;51.022;7.082;2022-08-01T07:26:11;22.60;11.80
48328;DHT22;34136;51.022;7.082;2022-08-01T07:28:59;22.60;11.40
48328;DHT22;34136;51.022;7.082;2022-08-01T07:31:45;22.70;12.20
48328;DHT22;34136;51.022;7.082;2022-08-01T07:34:31;22.80;12.10
48328;DHT22;34136;51.022;7.082;2022-08-01T07:37:17;22.70;10.20
48328;DHT22;34136;51.022;7.082;2022-08-01T07:40:04;22.60;9.60
48328;DHT22;34136;51.022;7.082;2022-08-01T07:42:50;22.60;9.20
48328;DHT22;34136;51.022;7.082;2022-08-01T07:45:37;22.60;10.00
48328;DHT22;34136;51.022;7.082;2022-08-01T07:48:23;22.70;10.00
48328;DHT22;34136;51.022;7.082;2022-08-01T07:51:09;22.70;8.40
48328;DHT22;34136;51.022;7.082;2022-08-01T07:53:56;22.80;9.60
48328;DHT22;34136;51.022;7.082;2022-08-01T07:56:42;22.80;9.80
48328;DHT22;34136;51.022;7.082;2022-08-01T07:59:28;22.90;9.70
48328;DHT22;34136;51.022;7.082;2022-08-01T08:02:15;22.80;9.60
48328;DHT22;34136;51.022;7.082;2022-08-01T08:05:02;23.00;8.00
48328;DHT22;34136;51.022;7.082;2022-08-01T08:07:48;23.10;6.80
48328;DHT22;34136;51.022;7.082;2022-08-01T08:10:34;23.00;8.00
48328;DHT22;34136;51.022;7.082;2022-08-01T08:13:20;23.10;6.50
48328;DHT22;34136;51.022;7.082;2022-08-01T08:16:07;23.10;6.90
48328;DHT22;34136;51.022;7.082;2022-08-01T08:18:53;23.10;6.30
48328;DHT22;34136;51.022;7.082;2022-08-01T08:21:39;23.20;6.20
48328;DHT22;34136;51.022;7.082;2022-08-01T08:24:26;23.30;5.20
48328;DHT22;34136;51.022;7.082;2022-08-01T08:27:13;23.30;5.50
48328;DHT22;34136;51.022;7.082;2022-08-01T08:29:59;23.30;5.20
48328;DHT22;34136;51.022;7.082;2022-08-01T08:32:47;23.60;4.10
48328;DHT22;34136;51.022;7.082;2022-08-01T08:35:34;23.90;3.10
48328;DHT22;34136;51.022;7.082;2022-08-01T08:38:20;24.20;1.00
48328;DHT22;34136;51.022;7.082;2022-08-01T08:41:08;24.00;1.00
48328;DHT22;34136;51.022;7.082;2022-08-01T08:43:54;24.00;1.00
48328;DHT22;34136;51.022;7.082;2022-08-01T08:46:42;23.90;1.00
48328;DHT22;34136;51.022;7.082;2022-08-01T08:49:29;23.70;1.00
48328;DHT22;34136;51.022;7.082;2022-08-01T08:52:17;23.80;1.00
48328;DHT22;34136;51.022;7.082;2022-08-01T08:55:05;23.90;1.00
48328;DHT22;34136;51.022;7.082;2022-08-01T08:57:52;23.90;1.00
48328;DHT22;34136;51.022;7.082;2022-08-01T09:00:41;23.80;1.00
48328;DHT22;34136;51.022;7.082;2022-08-01T09:03:28;23.80;1.00
48328;DHT22;34136;51.022;7.082;2022-08-01T09:06:14;23.70;1.00
48328;DHT22;34136;51.022;7.082;2022-08-01T09:09:00;23.90;1.00
48328;DHT22;34136;51.022;7.082;2022-08-01T09:11:47;24.10;1.00
48328;DHT22;34136;51.022;7.082;2022-08-01T09:14:44;24.20;1.00
48328;DHT22;34136;51.022;7.082;2022-08-01T09:17:39;24.30;1.00
48328;DHT22;34136;51.022;7.082;2022-08-01T09:20:26;24.20;1.00
48328;DHT22;34136;51.022;7.082;2022-08-01T09:26:34;24.70;1.00
48328;DHT22;34136;51.022;7.082;2022-08-01T09:29:26;25.00;1.00
48328;DHT22;34136;51.022;7.082;2022-08-01T09:32:13;25.10;1.00
48328;DHT22;34136;51.022;7.082;2022-08-01T09:42:25;25.30;1.00
48328;DHT22;34136;51.022;7.082;2022-08-01T09:45:56;25.20;1.00
48328;DHT22;34136;51.022;7.082;2022-08-01T09:53:06;25.50;1.00
48328;DHT22;34136;51.022;7.082;2022-08-01T09:56:22;25.60;1.00
48328;DHT22;34136;51.022;7.082;2022-08-01T10:06:44;25.60;1.00
48328;DHT22;34136;51.022;7.082;2022-08-01T10:14:02;25.50;1.00
48328;DHT22;34136;51.022;7.082;2022-08-01T10:20:52;25.60;1.00
48328;DHT22;34136;51.022;7.082;2022-08-01T12:05:15;28.10;1.00
48328;DHT22;34136;51.022;7.082;2022-08-01T12:08:02;28.00;1.00
48328;DHT22;34136;51.022;7.082;2022-08-01T12:10:49;27.70;1.00
48328;DHT22;34136;51.022;7.082;2022-08-01T12:13:52;27.80;1.00
48328;DHT22;34136;51.022;7.082;2022-08-01T12:16:51;27.60;1.00
48328;DHT22;34136;51.022;7.082;2022-08-01T12:19:38;27.20;1.00
48328;DHT22;34136;51.022;7.082;2022-08-01T12:22:26;27.10;1.00
48328;DHT22;34136;51.022;7.082;2022-08-01T12:25:14;27.10;1.00
48328;DHT22;34136;51.022;7.082;2022-08-01T12:28:09;27.00;1.00
48328;DHT22;34136;51.022;7.082;2022-08-01T12:30:59;26.90;1.00
48328;DHT22;34136;51.022;7.082;2022-08-01T12:33:46;27.00;1.00
48328;DHT22;34136;51.022;7.082;2022-08-01T12:36:34;27.10;1.00
48328;DHT22;34136;51.022;7.082;2022-08-01T12:39:20;27.50;1.00
48328;DHT22;34136;51.022;7.082;2022-08-01T12:42:07;27.60;1.00
48328;DHT22;34136;51.022;7.082;2022-08-01T12:44:54;28.00;1.00
48328;DHT22;34136;51.022;7.082;2022-08-01T12:47:41;28.00;1.00
48328;DHT22;34136;51.022;7.082;2022-08-01T12:50:30;27.80;1.00
48328;DHT22;34136;51.022;7.082;2022-08-01T12:53:16;27.80;1.00
48328;DHT22;34136;51.022;7.082;2022-08-01T12:56:02;28.00;1.00
48328;DHT22;34136;51.022;7.082;2022-08-01T12:58:49;28.20;1.00
48328;DHT22;34136;51.022;7.082;2022-08-01T13:02:12;27.90;1.00
48328;DHT22;34136;51.022;7.082;2022-08-01T13:05:06;27.80;1.00
48328;DHT22;34136;51.022;7.082;2022-08-01T13:07:53;27.50;1.00
48328;DHT22;34136;51.022;7.082;2022-08-01T13:10:40;27.60;1.00
48328;DHT22;34136;51.022;7.082;2022-08-01T13:13:41;27.60;1.00
48328;DHT22;34136;51.022;7.082;2022-08-01T13:20:00;27.60;1.00
48328;DHT22;34136;51.022;7.082;2022-08-01T13:22:46;27.90;1.00
48328;DHT22;34136;51.022;7.082;2022-08-01T13:25:32;27.80;1.00
48328;DHT22;34136;51.022;7.082;2022-08-01T13:31:07;27.70;1.00
48328;DHT22;34136;51.022;7.082;2022-08-01T13:33:53;28.00;1.00
48328;DHT22;34136;51.022;7.082;2022-08-01T13:36:40;28.20;1.00
48328;DHT22;34136;51.022;7.082;2022-08-01T13:39:29;28.00;1.00
48328;DHT22;34136;51.022;7.082;2022-08-01T13:42:16;28.10;1.00
48328;DHT22;34136;51.022;7.082;2022-08-01T13:45:04;28.20;1.00
48328;DHT22;34136;51.022;7.082;2022-08-01T13:47:50;28.30;1.00
48328;DHT22;34136;51.022;7.082;2022-08-01T13:50:36;28.20;1.00
48328;DHT22;34136;51.022;7.082;2022-08-01T13:53:22;28.10;1.00
48328;DHT22;34136;51.022;7.082;2022-08-01T13:56:08;27.90;1.00
48328;DHT22;34136;51.022;7.082;2022-08-01T13:58:54;27.90;1.00
48328;DHT22;34136;51.022;7.082;2022-08-01T14:01:41;27.80;1.00
48328;DHT22;34136;51.022;7.082;2022-08-01T14:04:28;28.00;1.00
48328;DHT22;34136;51.022;7.082;2022-08-01T14:07:14;28.30;1.00
48328;DHT22;34136;51.022;7.082;2022-08-01T14:10:00;28.40;1.00
48328;DHT22;34136;51.022;7.082;2022-08-01T14:12:47;28.50;1.00
48328;DHT22;34136;51.022;7.082;2022-08-01T14:15:34;28.40;1.00
48328;DHT22;34136;51.022;7.082;2022-08-01T14:18:20;28.20;1.00
48328;DHT22;34136;51.022;7.082;2022-08-01T14:21:06;27.90;1.00
48328;DHT22;34136;51.022;7.082;2022-08-01T14:23:53;27.80;1.00
48328;DHT22;34136;51.022;7.082;2022-08-01T14:26:39;27.70;1.00
48328;DHT22;34136;51.022;7.082;2022-08-01T14:29:25;27.90;1.00
48328;DHT22;34136;51.022;7.082;2022-08-01T14:32:12;28.00;1.00
48328;DHT22;34136;51.022;7.082;2022-08-01T14:34:58;28.10;1.00
48328;DHT22;34136;51.022;7.082;2022-08-01T14:37:45;28.20;1.00
48328;DHT22;34136;51.022;7.082;2022-08-01T14:40:31;28.30;1.00
48328;DHT22;34136;51.022;7.082;2022-08-01T14:43:17;28.10;1.00
48328;DHT22;34136;51.022;7.082;2022-08-01T14:46:04;28.00;1.00
48328;DHT22;34136;51.022;7.082;2022-08-01T14:48:50;27.80;1.00
48328;DHT22;34136;51.022;7.082;2022-08-01T14:51:36;27.60;1.00
48328;DHT22;34136;51.022;7.082;2022-08-01T14:54:22;27.70;1.00
48328;DHT22;34136;51.022;7.082;2022-08-01T14:57:09;27.90;1.00
48328;DHT22;34136;51.022;7.082;2022-08-01T14:59:55;27.80;1.00
48328;DHT22;34136;51.022;7.082;2022-08-01T15:02:42;27.50;1.00
48328;DHT22;34136;51.022;7.082;2022-08-01T15:05:37;27.40;1.00
48328;DHT22;34136;51.022;7.082;2022-08-01T15:08:24;27.40;1.00
48328;DHT22;34136;51.022;7.082;2022-08-01T15:11:12;27.40;1.00
48328;DHT22;34136;51.022;7.082;2022-08-01T15:13:58;27.40;1.00
48328;DHT22;34136;51.022;7.082;2022-08-01T15:16:44;27.40;1.00
48328;DHT22;34136;51.022;7.082;2022-08-01T15:19:30;27.50;1.00
48328;DHT22;34136;51.022;7.082;2022-08-01T15:22:17;27.50;1.00
48328;DHT22;34136;51.022;7.082;2022-08-01T15:25:04;27.40;1.00
48328;DHT22;34136;51.022;7.082;2022-08-01T15:27:50;27.40;1.00
48328;DHT22;34136;51.022;7.082;2022-08-01T15:30:37;27.60;1.00
48328;DHT22;34136;51.022;7.082;2022-08-01T15:33:23;27.40;1.00
48328;DHT22;34136;51.022;7.082;2022-08-01T15:36:10;27.40;1.00
48328;DHT22;34136;51.022;7.082;2022-08-01T15:38:56;27.40;1.00
48328;DHT22;34136;51.022;7.082;2022-08-01T15:41:43;27.60;1.00
48328;DHT22;34136;51.022;7.082;2022-08-01T15:44:29;27.40;1.00
48328;DHT22;34136;51.022;7.082;2022-08-01T15:47:15;27.50;1.00
48328;DHT22;34136;51.022;7.082;2022-08-01T15:50:02;27.60;1.00
48328;DHT22;34136;51.022;7.082;2022-08-01T15:52:48;27.40;1.00
48328;DHT22;34136;51.022;7.082;2022-08-01T15:55:35;27.30;1.00
48328;DHT22;34136;51.022;7.082;2022-08-01T15:58:22;27.00;1.00
48328;DHT22;34136;51.022;7.082;2022-08-01T16:04:25;26.60;1.00
48328;DHT22;34136;51.022;7.082;2022-08-01T16:07:11;26.60;1.00
48328;DHT22;34136;51.022;7.082;2022-08-01T16:09:57;26.70;1.00
48328;DHT22;34136;51.022;7.082;2022-08-01T16:12:43;26.90;1.00
48328;DHT22;34136;51.022;7.082;2022-08-01T16:15:29;26.90;1.00
48328;DHT22;34136;51.022;7.082;2022-08-01T16:18:16;26.80;1.00
48328;DHT22;34136;51.022;7.082;2022-08-01T16:21:03;27.00;1.00
48328;DHT22;34136;51.022;7.082;2022-08-01T16:23:50;27.00;1.00
48328;DHT22;34136;51.022;7.082;2022-08-01T16:26:36;27.00;1.00
48328;DHT22;34136;51.022;7.082;2022-08-01T16:29:23;26.90;1.00
48328;DHT22;34136;51.022;7.082;2022-08-01T16:32:09;26.90;1.00
48328;DHT22;34136;51.022;7.082;2022-08-01T16:34:56;26.90;1.00
48328;DHT22;34136;51.022;7.082;2022-08-01T16:37:42;26.80;1.00
48328;DHT22;34136;51.022;7.082;2022-08-01T16:40:28;26.90;1.00
48328;DHT22;34136;51.022;7.082;2022-08-01T16:43:15;27.00;1.00
48328;DHT22;34136;51.022;7.082;2022-08-01T16:46:01;26.90;1.00
48328;DHT22;34136;51.022;7.082;2022-08-01T16:48:47;26.90;1.00
48328;DHT22;34136;51.022;7.082;2022-08-01T16:51:33;26.80;1.00
48328;DHT22;34136;51.022;7.082;2022-08-01T16:54:19;26.50;1.00
48328;DHT22;34136;51.022;7.082;2022-08-01T16:57:07;26.50;1.00
48328;DHT22;34136;51.022;7.082;2022-08-01T16:59:53;26.40;1.00
48328;DHT22;34136;51.022;7.082;2022-08-01T17:02:40;26.30;1.00
48328;DHT22;34136;51.022;7.082;2022-08-01T17:05:27;26.10;1.00
48328;DHT22;34136;51.022;7.082;2022-08-01T17:08:13;26.00;1.00
48328;DHT22;34136;51.022;7.082;2022-08-01T17:10:59;26.00;1.00
48328;DHT22;34136;51.022;7.082;2022-08-01T17:13:45;26.10;1.00
48328;DHT22;34136;51.022;7.082;2022-08-01T17:16:31;26.10;1.00
48328;DHT22;34136;51.022;7.082;2022-08-01T17:19:17;26.00;1.00
48328;DHT22;34136;51.022;7.082;2022-08-01T17:22:03;26.00;1.00
48328;DHT22;34136;51.022;7.082;2022-08-01T17:24:50;25.80;1.00
48328;DHT22;34136;51.022;7.082;2022-08-01T17:27:36;25.80;1.00
48328;DHT22;34136;51.022;7.082;2022-08-01T17:30:22;25.90;1.00
48328;DHT22;34136;51.022;7.082;2022-08-01T17:33:08;26.00;1.00
48328;DHT22;34136;51.022;7.082;2022-08-01T17:35:55;25.80;1.00
48328;DHT22;34136;51.022;7.082;2022-08-01T17:38:41;25.80;1.00
48328;DHT22;34136;51.022;7.082;2022-08-01T17:41:27;25.80;1.00
48328;DHT22;34136;51.022;7.082;2022-08-01T17:44:13;25.80;1.00
48328;DHT22;34136;51.022;7.082;2022-08-01T17:47:00;25.80;1.00
48328;DHT22;34136;51.022;7.082;2022-08-01T17:49:46;25.70;1.00
48328;DHT22;34136;51.022;7.082;2022-08-01T17:52:33;25.70;1.00
48328;DHT22;34136;51.022;7.082;2022-08-01T17:55:20;25.50;1.00
48328;DHT22;34136;51.022;7.082;2022-08-01T17:58:09;25.50;1.00
48328;DHT22;34136;51.022;7.082;2022-08-01T19:50:15;23.60;1.00
48328;DHT22;34136;51.022;7.082;2022-08-01T19:53:02;23.40;1.00
48328;DHT22;34136;51.022;7.082;2022-08-01T19:55:50;23.20;1.00
48328;DHT22;34136;51.022;7.082;2022-08-01T19:58:40;23.30;1.00
48328;DHT22;34136;51.022;7.082;2022-08-01T20:01:27;23.50;1.00
48328;DHT22;34136;51.022;7.082;2022-08-01T20:04:17;23.60;1.00
48328;DHT22;34136;51.022;7.082;2022-08-01T20:07:04;23.40;1.00
48328;DHT22;34136;51.022;7.082;2022-08-01T20:09:51;23.00;1.00
48328;DHT22;34136;51.022;7.082;2022-08-01T20:12:37;22.80;1.00
48328;DHT22;34136;51.022;7.082;2022-08-01T20:15:24;22.90;1.00
48328;DHT22;34136;51.022;7.082;2022-08-01T20:18:11;22.80;1.00
48328;DHT22;34136;51.022;7.082;2022-08-01T20:20:57;22.60;1.00
48328;DHT22;34136;51.022;7.082;2022-08-01T20:23:45;22.50;1.00
48328;DHT22;34136;51.022;7.082;2022-08-01T20:26:32;22.30;1.00
48328;DHT22;34136;51.022;7.082;2022-08-01T20:29:22;22.30;1.00
48328;DHT22;34136;51.022;7.082;2022-08-01T20:32:09;22.30;1.00
48328;DHT22;34136;51.022;7.082;2022-08-01T20:34:56;22.10;1.00
48328;DHT22;34136;51.022;7.082;2022-08-01T20:37:43;22.00;1.60
48328;DHT22;34136;51.022;7.082;2022-08-01T20:40:33;21.60;3.50
48328;DHT22;34136;51.022;7.082;2022-08-01T20:43:21;21.70;3.40
48328;DHT22;34136;51.022;7.082;2022-08-01T20:46:07;21.50;3.90
48328;DHT22;34136;51.022;7.082;2022-08-01T20:48:54;21.30;4.80
48328;DHT22;34136;51.022;7.082;2022-08-01T20:51:41;21.40;4.80
48328;DHT22;34136;51.022;7.082;2022-08-01T20:54:27;21.40;4.40
48328;DHT22;34136;51.022;7.082;2022-08-01T20:57:24;21.30;5.00
48328;DHT22;34136;51.022;7.082;2022-08-01T21:00:13;21.40;4.30
48328;DHT22;34136;51.022;7.082;2022-08-01T21:03:12;21.30;4.30
48328;DHT22;34136;51.022;7.082;2022-08-01T21:06:07;21.10;5.70
48328;DHT22;34136;51.022;7.082;2022-08-01T21:08:58;20.90;6.30
48328;DHT22;34136;51.022;7.082;2022-08-01T21:11:48;20.90;6.60
48328;DHT22;34136;51.022;7.082;2022-08-01T21:17:38;20.80;6.30
48328;DHT22;34136;51.022;7.082;2022-08-01T21:20:30;20.90;6.20
48328;DHT22;34136;51.022;7.082;2022-08-01T21:26:27;20.80;6.00
48328;DHT22;34136;51.022;7.082;2022-08-01T21:29:14;20.70;6.70
48328;DHT22;34136;51.022;7.082;2022-08-01T21:32:03;20.70;6.50
48328;DHT22;34136;51.022;7.082;2022-08-01T21:34:54;20.60;6.90
48328;DHT22;34136;51.022;7.082;2022-08-01T21:37:41;20.30;8.20
48328;DHT22;34136;51.022;7.082;2022-08-01T21:40:31;20.10;9.40
48328;DHT22;34136;51.022;7.082;2022-08-01T21:43:18;19.90;10.00
48328;DHT22;34136;51.022;7.082;2022-08-01T21:46:05;19.80;10.40
48328;DHT22;34136;51.022;7.082;2022-08-01T21:48:52;19.70;10.90
48328;DHT22;34136;51.022;7.082;2022-08-01T21:52:08;19.60;11.10
48328;DHT22;34136;51.022;7.082;2022-08-01T21:54:59;19.70;10.50
48328;DHT22;34136;51.022;7.082;2022-08-01T21:58:12;19.50;11.30
48328;DHT22;34136;51.022;7.082;2022-08-01T22:01:17;19.50;11.20
48328;DHT22;34136;51.022;7.082;2022-08-01T22:04:08;19.30;11.90
48328;DHT22;34136;51.022;7.082;2022-08-01T22:06:57;19.20;12.60
48328;DHT22;34136;51.022;7.082;2022-08-01T22:09:47;19.10;13.20
48328;DHT22;34136;51.022;7.082;2022-08-01T22:12:34;19.10;13.00
48328;DHT22;34136;51.022;7.082;2022-08-01T22:15:24;19.00;13.60
48328;DHT22;34136;51.022;7.082;2022-08-01T22:18:10;18.90;13.30